San Francisco, California
Traffic Map
Current Weather Conditions
San Francisco, California
Broken Clouds
Broken Clouds
67°
Feels Like: 67°
Wind Chill: 67° Ceiling: 1300
Heat Index: 67° Visibility: 10mi
Dew Point: 60° Wind: 6mph
Humidity: 79% Direction: 270° (W)
Pressure: 30.01in Gusts: 0mph
Raw Report DataKSFO 231556Z 27005KT 10SM BKN013 19/16 A3001 RMK AO2 SLP162 T01940156
Traffic Incident Summary
Active as of:
Severity:
Category:
InformationThere was an issue retrieving the traffic information for this location. Please try a different location or try again shortly.
Advertisements
Track Severe Weather on mobile